createdAt,value
2018-02-19T00:00:12.824Z,19.00
2018-02-19T00:02:41.334Z,16.53
2018-02-19T00:05:10.202Z,16.27
2018-02-19T00:07:39.194Z,17.30
2018-02-19T00:10:07.849Z,18.30
2018-02-19T00:12:37.129Z,16.07
2018-02-19T00:15:05.570Z,17.23
2018-02-19T00:17:34.025Z,18.87
2018-02-19T00:20:02.540Z,16.20
2018-02-19T00:22:31.736Z,16.07
2018-02-19T00:25:01.064Z,15.87
2018-02-19T00:27:29.430Z,16.23
2018-02-19T00:29:57.826Z,15.40
2018-02-19T00:32:28.982Z,15.43
2018-02-19T00:34:57.451Z,12.27
2018-02-19T00:37:25.998Z,16.60
2018-02-19T00:39:57.154Z,14.30
2018-02-19T00:42:26.672Z,18.60
2018-02-19T00:44:55.239Z,15.67
2018-02-19T00:47:24.815Z,16.53
2018-02-19T00:49:54.248Z,16.83
2018-02-19T00:52:22.711Z,20.20
2018-02-19T00:54:51.855Z,16.13
2018-02-19T00:57:20.353Z,15.57
2018-02-19T00:59:50.999Z,12.60
2018-02-19T01:02:19.520Z,17.93
2018-02-19T01:04:47.970Z,15.83
2018-02-19T01:07:16.346Z,13.27
2018-02-19T01:09:46.399Z,16.33
2018-02-19T01:12:14.936Z,15.27
2018-02-19T01:14:43.649Z,13.43
2018-02-19T01:17:12.292Z,11.90
2018-02-19T01:19:41.505Z,15.80
2018-02-19T01:22:10.003Z,13.00
2018-02-19T01:24:38.372Z,12.70
2018-02-19T01:27:06.824Z,16.60
2018-02-19T01:29:35.389Z,10.07
2018-02-19T01:32:06.758Z,12.47
2018-02-19T01:34:38.343Z,12.10
2018-02-19T01:37:06.720Z,13.80
2018-02-19T01:39:35.198Z,13.57
2018-02-19T01:42:03.590Z,15.47
2018-02-19T01:44:31.917Z,13.30
2018-02-19T01:47:00.245Z,14.23
2018-02-19T01:49:28.619Z,14.63
2018-02-19T01:51:57.072Z,12.63
2018-02-19T01:54:25.772Z,14.57
2018-02-19T01:56:54.166Z,11.33
2018-02-19T01:59:22.856Z,12.70
2018-02-19T02:01:53.418Z,11.80
2018-02-19T02:04:21.785Z,12.43
2018-02-19T02:06:50.184Z,14.37
2018-02-19T02:09:18.747Z,13.33
2018-02-19T02:11:47.968Z,15.43
2018-02-19T02:14:16.348Z,12.83
2018-02-19T02:16:47.320Z,12.90
2018-02-19T02:19:15.769Z,13.20
2018-02-19T02:21:44.284Z,13.20
2018-02-19T02:24:13.336Z,12.43
2018-02-19T02:26:42.032Z,14.90
2018-02-19T02:29:11.320Z,11.93
2018-02-19T02:31:41.281Z,11.70
2018-02-19T02:34:09.693Z,15.90
2018-02-19T02:36:39.785Z,13.60
2018-02-19T02:39:10.824Z,12.43
2018-02-19T02:41:41.776Z,11.70
2018-02-19T02:44:10.113Z,10.40
2018-02-19T02:46:40.357Z,13.00
2018-02-19T02:49:09.059Z,15.60
2018-02-19T02:51:39.527Z,9.73
2018-02-19T02:54:07.861Z,10.57
2018-02-19T02:56:36.224Z,13.43
2018-02-19T02:59:04.515Z,12.40
2018-02-19T03:01:32.896Z,15.03
2018-02-19T03:04:01.219Z,12.87
2018-02-19T03:06:29.602Z,13.73
2018-02-19T03:08:59.073Z,12.90
2018-02-19T03:11:27.911Z,12.10
2018-02-19T03:13:57.194Z,17.23
2018-02-19T03:16:25.510Z,13.33
2018-02-19T03:18:54.820Z,14.00
2018-02-19T03:21:26.976Z,14.83
2018-02-19T03:23:56.394Z,11.97
2018-02-19T03:26:25.807Z,10.93
2018-02-19T03:28:55.001Z,13.50
2018-02-19T03:31:23.409Z,11.20
2018-02-19T03:33:51.763Z,12.73
2018-02-19T03:36:20.430Z,11.37
2018-02-19T03:38:48.778Z,11.70
2018-02-19T03:41:17.375Z,16.53
2018-02-19T03:43:45.668Z,9.27
2018-02-19T03:46:14.031Z,12.03
2018-02-19T03:48:44.159Z,11.40
2018-02-19T03:51:14.122Z,11.33
2018-02-19T03:53:42.541Z,14.83
2018-02-19T03:56:10.911Z,19.67
2018-02-19T03:58:39.279Z,16.23
2018-02-19T04:01:09.191Z,17.33
2018-02-19T04:03:37.621Z,13.57
2018-02-19T04:06:06.275Z,12.33
2018-02-19T04:08:36.329Z,14.00
2018-02-19T04:11:04.743Z,14.73
2018-02-19T04:13:34.835Z,13.00
2018-02-19T04:16:03.237Z,13.30
2018-02-19T04:18:31.595Z,10.30
2018-02-19T04:21:00.505Z,10.57
2018-02-19T04:23:28.856Z,11.40
2018-02-19T04:25:57.199Z,11.40
2018-02-19T04:28:25.605Z,13.20
2018-02-19T04:30:54.072Z,10.73
2018-02-19T04:33:22.504Z,11.07
2018-02-19T04:35:50.847Z,11.50
2018-02-19T04:38:19.603Z,9.30
2018-02-19T04:40:47.916Z,15.67
2018-02-19T04:43:17.081Z,10.77
2018-02-19T04:45:49.477Z,15.93
2018-02-19T04:48:18.805Z,13.40
2018-02-19T04:50:47.129Z,11.70
2018-02-19T04:53:15.607Z,10.53
2018-02-19T04:55:45.555Z,15.93
2018-02-19T04:58:14.007Z,13.17
2018-02-19T05:00:42.404Z,12.37
2018-02-19T05:03:10.955Z,13.30
2018-02-19T05:05:39.335Z,14.80
2018-02-19T05:08:07.750Z,10.63
2018-02-19T05:10:36.233Z,11.30
2018-02-19T05:13:04.739Z,11.47
2018-02-19T05:15:33.125Z,12.30
2018-02-19T05:18:01.479Z,13.73
2018-02-19T05:20:29.855Z,12.10
2018-02-19T05:23:00.046Z,14.77
2018-02-19T05:25:30.032Z,14.83
2018-02-19T05:28:00.769Z,11.57
2018-02-19T05:30:30.787Z,12.47
2018-02-19T05:33:00.180Z,14.90
2018-02-19T05:35:30.006Z,15.13
2018-02-19T05:37:59.099Z,12.60
2018-02-19T05:40:27.600Z,11.97
2018-02-19T05:42:57.142Z,12.27
2018-02-19T05:45:25.506Z,11.83
2018-02-19T05:47:57.599Z,10.60
2018-02-19T05:50:27.156Z,15.80
2018-02-19T05:52:58.316Z,11.67
2018-02-19T05:55:27.063Z,12.20
2018-02-19T05:57:56.097Z,11.40
2018-02-19T06:00:25.283Z,15.63
2018-02-19T06:02:56.060Z,15.70
2018-02-19T06:05:24.572Z,14.07
2018-02-19T06:07:52.961Z,12.00
2018-02-19T06:10:23.421Z,12.07
2018-02-19T06:12:56.011Z,13.13
2018-02-19T06:15:26.842Z,17.10
2018-02-19T06:17:57.793Z,17.10
2018-02-19T06:20:26.183Z,14.17
2018-02-19T06:22:54.731Z,15.50
2018-02-19T06:25:23.118Z,15.10
2018-02-19T06:27:51.506Z,19.03
2018-02-19T06:30:19.908Z,22.70
2018-02-19T06:32:49.717Z,12.10
2018-02-19T06:35:18.087Z,12.30
2018-02-19T06:37:46.440Z,13.93
2018-02-19T06:40:14.819Z,14.90
2018-02-19T06:42:43.269Z,15.30
2018-02-19T06:45:11.582Z,14.03
2018-02-19T06:47:44.343Z,14.33
2018-02-19T06:50:24.259Z,11.93
2018-02-19T06:52:57.728Z,13.93
2018-02-19T06:55:32.443Z,14.60
2018-02-19T06:58:07.246Z,15.40
2018-02-19T07:00:41.419Z,21.00
2018-02-19T07:03:17.216Z,17.80
2018-02-19T07:05:51.636Z,15.83
2018-02-19T07:08:25.124Z,17.10
2018-02-19T07:11:00.741Z,17.33
2018-02-19T07:13:29.601Z,18.33
2018-02-19T07:15:57.940Z,15.57
2018-02-19T07:18:26.322Z,17.23
2018-02-19T07:20:57.283Z,13.90
2018-02-19T07:23:25.713Z,15.27
2018-02-19T07:25:54.082Z,15.73
2018-02-19T07:28:25.084Z,20.27
2018-02-19T07:30:53.481Z,19.33
2018-02-19T07:33:21.842Z,16.67
2018-02-19T07:35:50.209Z,15.50
2018-02-19T07:38:19.222Z,15.07
2018-02-19T07:40:48.328Z,14.70
2018-02-19T07:43:16.662Z,17.10
2018-02-19T07:45:45.010Z,14.73
2018-02-19T07:48:13.367Z,12.50
2018-02-19T07:50:42.931Z,15.30
2018-02-19T07:53:12.800Z,16.60
2018-02-19T07:55:44.851Z,17.93
2018-02-19T07:58:13.258Z,16.13
2018-02-19T08:00:41.710Z,17.03
2018-02-19T08:03:11.129Z,17.80
2018-02-19T08:05:39.483Z,16.40
2018-02-19T08:08:09.592Z,17.57
2018-02-19T08:10:40.564Z,15.73
2018-02-19T08:13:11.064Z,14.90
2018-02-19T08:15:39.610Z,14.70
2018-02-19T08:18:09.551Z,16.83
2018-02-19T08:20:37.943Z,15.23
2018-02-19T08:23:06.312Z,15.30
2018-02-19T08:25:34.690Z,16.80
2018-02-19T08:28:03.788Z,15.47
2018-02-19T08:30:32.845Z,15.37
2018-02-19T08:33:03.003Z,15.57
2018-02-19T08:35:33.096Z,15.00
2018-02-19T08:38:01.473Z,18.37
2018-02-19T08:40:31.569Z,18.13
2018-02-19T08:43:01.757Z,18.97
2018-02-19T08:45:30.135Z,22.40
2018-02-19T08:47:58.642Z,18.40
2018-02-19T08:50:27.784Z,19.17
2018-02-19T08:52:56.870Z,18.40
2018-02-19T08:55:25.243Z,14.63
2018-02-19T08:57:53.650Z,17.00
2018-02-19T09:00:24.630Z,17.50
2018-02-19T09:02:55.821Z,14.67
2018-02-19T09:05:24.248Z,17.30
2018-02-19T09:07:53.528Z,14.20
2018-02-19T09:10:21.954Z,14.60
2018-02-19T09:12:54.648Z,15.47
2018-02-19T09:15:23.661Z,15.23
2018-02-19T09:17:52.049Z,16.73
2018-02-19T09:20:22.193Z,16.97
2018-02-19T09:22:54.818Z,14.63
2018-02-19T09:25:23.393Z,16.17
2018-02-19T09:27:51.777Z,15.33
2018-02-19T09:30:21.843Z,17.07
2018-02-19T09:32:50.213Z,16.10
2018-02-19T09:35:18.669Z,18.33
2018-02-19T09:37:46.999Z,18.63
2018-02-19T09:40:15.436Z,20.70
2018-02-19T09:42:46.691Z,23.37
2018-02-19T09:45:16.325Z,20.23
2018-02-19T09:47:46.301Z,20.80
2018-02-19T09:50:17.873Z,24.10
2018-02-19T09:52:52.204Z,19.57
2018-02-19T09:55:22.423Z,17.70
2018-02-19T09:57:53.893Z,17.60
2018-02-19T10:00:24.068Z,17.73
2018-02-19T10:02:52.483Z,22.03
2018-02-19T10:05:22.952Z,19.60
2018-02-19T10:07:52.041Z,20.20
2018-02-19T10:10:21.191Z,17.03
2018-02-19T10:12:49.567Z,16.87
2018-02-19T10:15:17.921Z,17.83
2018-02-19T10:17:49.061Z,16.37
2018-02-19T10:20:18.241Z,16.90
2018-02-19T10:22:46.685Z,17.73
2018-02-19T10:25:15.006Z,19.70
2018-02-19T10:27:43.344Z,23.20
2018-02-19T10:30:11.725Z,19.13
2018-02-19T10:32:41.990Z,20.70
2018-02-19T10:35:12.744Z,19.17
2018-02-19T10:37:42.318Z,21.20
2018-02-19T10:40:10.631Z,17.97
2018-02-19T10:42:38.913Z,16.60
2018-02-19T10:45:07.474Z,19.83
2018-02-19T10:47:37.734Z,18.00
2018-02-19T10:50:09.333Z,18.40
2018-02-19T10:52:40.653Z,16.57
2018-02-19T10:55:10.009Z,19.50
2018-02-19T10:57:38.323Z,18.83
2018-02-19T11:00:06.879Z,18.67
2018-02-19T11:02:36.073Z,19.37
2018-02-19T11:05:06.092Z,20.73
2018-02-19T11:07:36.251Z,19.87
2018-02-19T11:10:04.690Z,20.67
2018-02-19T11:12:36.866Z,20.47
2018-02-19T11:15:05.271Z,19.67
2018-02-19T11:17:36.412Z,18.37
2018-02-19T11:20:04.790Z,18.43
2018-02-19T11:22:33.354Z,17.60
2018-02-19T11:25:01.745Z,20.70
2018-02-19T11:27:31.852Z,21.97
2018-02-19T11:30:00.493Z,17.37
2018-02-19T11:32:30.585Z,18.03
2018-02-19T11:34:59.241Z,22.37
2018-02-19T11:37:27.733Z,22.30
2018-02-19T11:39:56.256Z,19.20
2018-02-19T11:42:24.561Z,22.47
2018-02-19T11:44:52.994Z,21.40
2018-02-19T11:47:21.326Z,22.33
2018-02-19T11:49:49.698Z,17.00
2018-02-19T11:52:19.662Z,17.97
2018-02-19T11:54:48.879Z,21.07
2018-02-19T11:57:17.308Z,22.30
2018-02-19T11:59:45.710Z,17.17
2018-02-19T12:02:14.060Z,18.50
2018-02-19T12:04:42.417Z,30.37
2018-02-19T12:07:12.111Z,26.00
2018-02-19T12:09:41.314Z,21.87
2018-02-19T12:12:12.390Z,23.20
2018-02-19T12:14:40.783Z,19.77
2018-02-19T12:17:09.317Z,20.53
2018-02-19T12:19:37.718Z,25.20
2018-02-19T12:22:06.061Z,45.07
2018-02-19T12:24:34.445Z,23.73
2018-02-19T12:27:05.457Z,21.47
2018-02-19T12:29:33.868Z,19.90
2018-02-19T12:32:05.143Z,19.87
2018-02-19T12:34:36.798Z,21.70
2018-02-19T12:37:05.244Z,20.00
2018-02-19T12:39:33.785Z,23.57
2018-02-19T12:42:02.182Z,20.60
2018-02-19T12:44:30.582Z,21.63
2018-02-19T12:46:58.983Z,25.63
2018-02-19T12:49:29.186Z,20.43
2018-02-19T12:52:00.060Z,19.97
2018-02-19T12:54:28.433Z,24.73
2018-02-19T12:56:56.806Z,18.60
2018-02-19T12:59:25.152Z,22.10
2018-02-19T13:01:53.590Z,18.67
2018-02-19T13:04:21.955Z,19.23
2018-02-19T13:06:51.384Z,19.53
2018-02-19T13:09:19.727Z,19.77
2018-02-19T13:11:48.082Z,14.27
2018-02-19T13:14:16.703Z,23.87
2018-02-19T13:16:47.838Z,26.33
2018-02-19T13:19:16.450Z,18.07
2018-02-19T13:21:47.620Z,26.17
2018-02-19T13:24:19.179Z,22.10
2018-02-19T13:26:47.524Z,19.23
2018-02-19T13:29:18.537Z,21.47
2018-02-19T13:31:46.994Z,19.70
2018-02-19T13:34:15.490Z,21.23
2018-02-19T13:36:43.851Z,21.50
2018-02-19T13:39:12.195Z,19.80
2018-02-19T13:41:40.688Z,20.07
2018-02-19T13:44:11.909Z,21.67
2018-02-19T13:46:40.275Z,24.00
2018-02-19T13:49:08.641Z,21.07
2018-02-19T13:51:37.007Z,25.67
2018-02-19T13:54:05.399Z,19.60
2018-02-19T13:56:34.482Z,18.50
2018-02-19T13:59:04.414Z,20.53
2018-02-19T14:01:32.783Z,21.30
2018-02-19T14:04:01.179Z,28.63
2018-02-19T14:06:29.536Z,25.83
2018-02-19T14:08:57.860Z,23.63
2018-02-19T14:11:26.479Z,20.43
2018-02-19T14:13:54.814Z,21.97
2018-02-19T14:16:24.093Z,29.40
2018-02-19T14:18:52.555Z,24.63
2018-02-19T14:21:22.543Z,24.03
2018-02-19T14:23:51.080Z,23.03
2018-02-19T14:26:19.434Z,20.57
2018-02-19T14:28:49.506Z,18.77
2018-02-19T14:31:17.931Z,19.17
2018-02-19T14:33:46.403Z,23.97
2018-02-19T14:36:14.794Z,18.47
2018-02-19T14:38:43.313Z,25.17
2018-02-19T14:41:11.699Z,23.20
2018-02-19T14:43:42.946Z,23.13
2018-02-19T14:46:12.310Z,22.77
2018-02-19T14:48:43.818Z,18.30
2018-02-19T14:51:13.043Z,19.10
2018-02-19T14:53:44.738Z,24.87
2018-02-19T14:56:16.614Z,20.70
2018-02-19T14:58:47.793Z,20.77
2018-02-19T15:01:17.814Z,32.73
2018-02-19T15:03:46.353Z,40.73
2018-02-19T15:06:14.737Z,33.40
2018-02-19T15:08:43.070Z,27.03
2018-02-19T15:11:11.441Z,29.67
2018-02-19T15:13:42.226Z,32.73
2018-02-19T15:16:10.738Z,28.60
2018-02-19T15:18:39.955Z,22.10
2018-02-19T15:21:08.437Z,21.43
2018-02-19T15:23:36.791Z,21.17
2018-02-19T15:26:05.610Z,22.60
2018-02-19T15:28:33.992Z,35.43
2018-02-19T15:31:03.081Z,18.17
2018-02-19T15:33:33.715Z,20.80
2018-02-19T15:36:02.084Z,19.30
2018-02-19T15:38:30.665Z,22.17
2018-02-19T15:40:59.054Z,23.03
2018-02-19T15:43:27.430Z,19.80
2018-02-19T15:45:55.966Z,23.67
2018-02-19T15:48:24.445Z,23.00
2018-02-19T15:50:54.554Z,21.13
2018-02-19T15:53:23.097Z,23.80
2018-02-19T15:55:54.162Z,20.10
2018-02-19T15:58:23.242Z,23.17
2018-02-19T16:00:51.620Z,24.10
2018-02-19T16:03:19.962Z,21.70
2018-02-19T16:05:54.580Z,20.97
2018-02-19T16:08:23.207Z,24.43
2018-02-19T16:10:51.708Z,20.03
2018-02-19T16:13:20.811Z,21.07
2018-02-19T16:15:49.132Z,21.80
2018-02-19T16:18:20.265Z,18.43
2018-02-19T16:20:48.637Z,18.67
2018-02-19T16:23:17.025Z,21.93
2018-02-19T16:25:45.458Z,19.47
2018-02-19T16:28:13.987Z,22.40
2018-02-19T16:30:42.577Z,20.20
2018-02-19T16:33:12.785Z,21.73
2018-02-19T16:35:43.525Z,25.10
2018-02-19T16:38:12.047Z,22.50
2018-02-19T16:40:40.428Z,23.60
2018-02-19T16:43:10.561Z,20.20
2018-02-19T16:45:39.007Z,23.37
2018-02-19T16:48:07.383Z,23.97
2018-02-19T16:50:36.040Z,22.87
2018-02-19T16:53:04.425Z,23.27
2018-02-19T16:55:32.843Z,21.23
2018-02-19T16:58:03.449Z,29.47
2018-02-19T17:00:31.769Z,24.43
2018-02-19T17:03:00.193Z,26.43
2018-02-19T17:05:28.576Z,38.07
2018-02-19T17:07:57.020Z,31.17
2018-02-19T17:10:25.449Z,35.30
2018-02-19T17:12:53.817Z,23.30
2018-02-19T17:15:24.945Z,19.70
2018-02-19T17:17:54.185Z,61.93
2018-02-19T17:20:22.773Z,124.33
2018-02-19T17:22:52.873Z,105.37
2018-02-19T17:25:21.298Z,55.23
2018-02-19T17:27:52.421Z,31.60
2018-02-19T17:30:20.795Z,24.23
2018-02-19T17:32:51.309Z,25.67
2018-02-19T17:35:22.285Z,23.20
2018-02-19T17:37:52.826Z,27.00
2018-02-19T17:40:21.367Z,30.07
2018-02-19T17:42:52.884Z,32.80
2018-02-19T17:45:21.648Z,31.73
2018-02-19T17:47:53.406Z,24.50
2018-02-19T17:50:22.885Z,22.80
2018-02-19T17:52:52.211Z,25.03
2018-02-19T17:55:20.933Z,30.63
2018-02-19T17:57:50.237Z,25.60
2018-02-19T18:00:18.733Z,28.03
2018-02-19T18:02:47.141Z,28.63
2018-02-19T18:05:15.566Z,33.60
2018-02-19T18:07:44.104Z,34.43
2018-02-19T18:10:12.555Z,27.80
2018-02-19T18:12:42.910Z,26.87
2018-02-19T18:15:13.664Z,29.73
2018-02-19T18:17:43.795Z,27.00
2018-02-19T18:20:12.283Z,28.83
2018-02-19T18:22:41.692Z,28.07
2018-02-19T18:25:10.387Z,28.43
2018-02-19T18:27:38.972Z,26.10
2018-02-19T18:30:07.560Z,25.47
2018-02-19T18:32:35.964Z,27.17
2018-02-19T18:35:06.490Z,30.43
2018-02-19T18:37:35.881Z,29.40
2018-02-19T18:40:06.985Z,30.10
2018-02-19T18:42:35.485Z,29.27
2018-02-19T18:45:06.767Z,28.30
2018-02-19T18:47:35.243Z,29.00
2018-02-19T18:50:05.402Z,26.70
2018-02-19T18:52:33.779Z,26.60
2018-02-19T18:55:02.297Z,34.90
2018-02-19T18:57:30.691Z,31.80
2018-02-19T19:00:03.320Z,29.40
2018-02-19T19:02:31.770Z,49.57
2018-02-19T19:05:00.094Z,50.20
2018-02-19T19:07:40.353Z,37.97
2018-02-19T19:10:20.800Z,36.33
2018-02-19T19:12:49.237Z,32.73
2018-02-19T19:15:17.833Z,32.20
2018-02-19T19:20:42.742Z,36.90
2018-02-19T19:23:12.853Z,32.30
2018-02-19T19:25:42.164Z,36.70
2018-02-19T19:28:10.819Z,35.27
2018-02-19T19:30:40.954Z,37.47
2018-02-19T19:33:09.414Z,37.20
2018-02-19T19:35:37.796Z,34.07
2018-02-19T19:38:06.443Z,34.57
2018-02-19T19:40:35.948Z,35.27
2018-02-19T19:43:04.554Z,34.87
2018-02-19T19:45:33.243Z,35.00
2018-02-19T19:48:01.635Z,34.70
2018-02-19T19:50:30.195Z,36.30
2018-02-19T19:52:58.790Z,38.73
2018-02-19T19:55:27.969Z,33.70
2018-02-19T19:57:56.431Z,36.03
2018-02-19T20:00:25.638Z,33.53
2018-02-19T20:02:54.088Z,29.93
2018-02-19T20:05:22.443Z,32.43
2018-02-19T20:07:50.909Z,47.53
2018-02-19T20:10:19.485Z,32.10
2018-02-19T20:12:48.186Z,29.50
2018-02-19T20:15:16.623Z,29.30
2018-02-19T20:17:45.055Z,29.17
2018-02-19T20:20:14.463Z,29.73
2018-02-19T20:22:42.925Z,35.40
2018-02-19T20:25:12.116Z,31.80
2018-02-19T20:27:41.429Z,33.63
2018-02-19T20:30:10.623Z,30.87
2018-02-19T20:32:41.688Z,28.97
2018-02-19T20:35:10.257Z,29.50
2018-02-19T20:37:38.821Z,30.63
2018-02-19T20:40:07.395Z,35.73
2018-02-19T20:42:37.377Z,37.80
2018-02-19T20:45:05.799Z,36.20
2018-02-19T20:47:36.835Z,39.53
2018-02-19T20:50:06.209Z,38.57
2018-02-19T20:52:37.109Z,32.43
2018-02-19T21:08:08.879Z,39.93
2018-02-19T21:10:38.047Z,30.87
2018-02-19T21:13:07.357Z,36.23
2018-02-19T21:15:35.686Z,30.50
2018-02-19T21:18:06.231Z,37.20
2018-02-19T21:20:34.610Z,33.93
2018-02-19T21:23:03.015Z,35.60
2018-02-19T21:25:33.816Z,35.53
2018-02-19T21:28:02.872Z,35.07
2018-02-19T21:30:31.249Z,34.00
2018-02-19T21:33:02.227Z,31.50
2018-02-19T21:35:30.754Z,29.97
2018-02-19T21:38:01.068Z,28.93
2018-02-19T21:40:32.443Z,35.20
2018-02-19T21:43:00.792Z,33.73
2018-02-19T21:45:30.927Z,35.50
2018-02-19T21:47:59.434Z,36.07
2018-02-19T21:50:27.774Z,33.07
2018-02-19T21:52:56.175Z,33.20
2018-02-19T21:55:24.590Z,33.37
2018-02-19T21:57:53.571Z,29.97
2018-02-19T22:00:21.896Z,36.07
2018-02-19T22:02:50.293Z,32.70
2018-02-19T22:05:18.638Z,31.50
2018-02-19T22:07:47.439Z,33.60
2018-02-19T22:10:15.910Z,39.23
2018-02-19T22:12:46.409Z,37.93
2018-02-19T22:15:17.160Z,34.07
2018-02-19T22:17:47.514Z,34.57
2018-02-19T22:20:17.514Z,37.47
2018-02-19T22:22:45.834Z,31.60
2018-02-19T22:25:14.488Z,34.47
2018-02-19T22:27:44.776Z,35.00
2018-02-19T22:30:13.119Z,31.70
2018-02-19T22:32:42.198Z,35.10
2018-02-19T22:35:10.628Z,40.97
2018-02-19T22:37:40.851Z,41.47
2018-02-19T22:40:09.206Z,41.33
2018-02-19T22:42:37.587Z,49.97
2018-02-19T22:45:06.063Z,42.30
2018-02-19T22:47:34.421Z,49.33
2018-02-19T22:50:02.738Z,41.33
2018-02-19T22:52:31.180Z,51.03
2018-02-19T22:54:59.516Z,39.77
2018-02-19T22:57:27.933Z,42.87
2018-02-19T22:59:56.359Z,41.87
2018-02-19T23:02:24.697Z,42.90
2018-02-19T23:04:53.034Z,42.97
2018-02-19T23:07:22.080Z,37.67
2018-02-19T23:09:50.441Z,43.00
2018-02-19T23:12:18.739Z,42.17
2018-02-19T23:14:49.160Z,47.07
2018-02-19T23:17:17.485Z,42.17
2018-02-19T23:19:47.545Z,43.20
2018-02-19T23:22:15.951Z,44.47
2018-02-19T23:24:44.295Z,40.10
2018-02-19T23:27:14.792Z,39.73
2018-02-19T23:29:43.120Z,34.50
2018-02-19T23:32:13.098Z,41.03
2018-02-19T23:34:41.443Z,43.00
2018-02-19T23:37:09.895Z,43.00
2018-02-19T23:39:38.284Z,37.33
2018-02-19T23:42:09.305Z,36.40
2018-02-19T23:44:37.569Z,41.73
2018-02-19T23:47:06.005Z,54.47
2018-02-19T23:49:34.356Z,59.83
2018-02-19T23:52:03.479Z,48.33
2018-02-19T23:54:35.618Z,48.50
2018-02-19T23:57:04.887Z,41.90
2018-02-19T23:59:33.222Z,39.80
